KCZL

Details ICAO KCZL
Name TOM B DAVID FLD
Region United States
Timezone America/New_York (UTC-5.0)
Plans Departing 0
Arriving 0
Stats Elevation 647 ft / 197 m (AMSL)
Location 34.455446° -84.939189°
Runways 1
Magnetic Variation 4.853° W
Sunrise 2017-12-16 12:41:09 UTC / 2017-12-16 07:41:09 Local
Sunset 2017-12-16 22:32:37 UTC / 2017-12-16 17:32:37 Local
Advertisement - Login to hide

Runways

ID Width Length Bearing (true) Bearing (mag) Surface Threshold Offset Overrun Length
17 75 ft / 23 m 6,015 ft / 1,833 m 168.05° 172.90° Asphalt 0 ft / 0 m 0 ft / 0 m
35 75 ft / 23 m 6,015 ft / 1,833 m 348.05° 352.90° Asphalt 1,000 ft / 305 m 0 ft / 0 m

Map

Weather


0- 5 10 15 20 25 30 35+ Temperature / ° C

Clouds and Precipitation
Forecast for 2017-12-16 12:00 UTC. Updated 2 hours ago

Ground ~20,000 ft ~40,000 ft Winds

METAR

KCZL 161055Z AUTO 00000KT 10SM CLR M06/M07 A3027 RMK AO2 T10581067

TAF

Not found

Frequencies

Unicom 122.80 MHz CTAF/UNICOM
Warning: Do not use this data for real-world aviation or navigation. No guarantee of current accuracy is given.